createdAt,value
2023-03-31T00:01:15.295Z,100.00
2023-03-31T00:03:44.815Z,100.00
2023-03-31T00:06:18.706Z,100.00
2023-03-31T00:08:52.502Z,100.00
2023-03-31T00:11:22.572Z,100.00
2023-03-31T00:13:51.161Z,100.00
2023-03-31T00:16:19.344Z,100.00
2023-03-31T00:18:50.902Z,100.00
2023-03-31T00:21:33.971Z,100.00
2023-03-31T00:24:07.343Z,100.00
2023-03-31T00:26:35.751Z,100.00
2023-03-31T00:29:08.513Z,100.00
2023-03-31T00:31:36.511Z,100.00
2023-03-31T00:34:04.121Z,100.00
2023-03-31T00:36:36.866Z,100.00
2023-03-31T00:39:09.779Z,100.00
2023-03-31T00:41:39.519Z,100.00
2023-03-31T00:44:24.919Z,100.00
2023-03-31T00:46:55.929Z,100.00
2023-03-31T00:49:36.601Z,100.00
2023-03-31T00:52:13.579Z,100.00
2023-03-31T00:54:44.744Z,100.00
2023-03-31T00:57:13.821Z,100.00
2023-03-31T00:59:49.774Z,100.00
2023-03-31T01:02:20.822Z,100.00
2023-03-31T01:04:55.794Z,100.00
2023-03-31T01:07:33.703Z,100.00
2023-03-31T01:10:05.245Z,100.00
2023-03-31T01:12:37.205Z,100.00
2023-03-31T01:15:07.485Z,100.00
2023-03-31T01:17:35.949Z,100.00
2023-03-31T01:20:12.130Z,100.00
2023-03-31T01:23:05.569Z,100.00
2023-03-31T01:25:52.657Z,100.00
2023-03-31T01:28:26.821Z,100.00
2023-03-31T01:31:13.546Z,100.00
2023-03-31T01:33:58.879Z,100.00
2023-03-31T01:37:03.334Z,100.00
2023-03-31T01:39:45.918Z,100.00
2023-03-31T01:42:33.530Z,100.00
2023-03-31T01:45:08.658Z,100.00
2023-03-31T01:47:50.935Z,100.00
2023-03-31T01:50:28.294Z,100.00
2023-03-31T01:53:15.331Z,100.00
2023-03-31T01:56:04.573Z,100.00
2023-03-31T01:58:39.158Z,100.00
2023-03-31T02:01:38.098Z,100.00
2023-03-31T02:04:21.727Z,100.00
2023-03-31T02:06:59.409Z,100.00
2023-03-31T02:09:34.460Z,100.00
2023-03-31T02:12:06.737Z,100.00
2023-03-31T02:14:41.257Z,100.00
2023-03-31T02:17:18.225Z,100.00
2023-03-31T02:19:52.285Z,100.00
2023-03-31T02:22:22.391Z,100.00
2023-03-31T02:24:52.979Z,100.00
2023-03-31T02:27:35.798Z,100.00
2023-03-31T02:30:04.736Z,100.00
2023-03-31T02:32:40.678Z,100.00
2023-03-31T02:35:13.302Z,100.00
2023-03-31T02:37:42.489Z,100.00
2023-03-31T02:40:17.147Z,100.00
2023-03-31T02:42:45.505Z,100.00
2023-03-31T02:45:51.866Z,100.00
2023-03-31T02:48:22.482Z,100.00
2023-03-31T02:51:09.460Z,100.00
2023-03-31T02:53:58.936Z,100.00
2023-03-31T02:56:53.499Z,100.00
2023-03-31T02:59:24.102Z,100.00
2023-03-31T03:01:56.469Z,100.00
2023-03-31T03:04:59.556Z,100.00
2023-03-31T03:07:49.949Z,100.00
2023-03-31T03:10:26.949Z,100.00
2023-03-31T03:13:23.912Z,100.00
2023-03-31T03:16:13.973Z,100.00
2023-03-31T03:18:42.049Z,100.00
2023-03-31T03:21:10.638Z,100.00
2023-03-31T03:23:38.462Z,100.00
2023-03-31T03:26:07.336Z,100.00
2023-03-31T03:28:36.806Z,100.00
2023-03-31T03:31:04.518Z,100.00
2023-03-31T03:33:33.108Z,100.00
2023-03-31T03:36:01.414Z,100.00
2023-03-31T03:38:29.455Z,100.00
2023-03-31T03:40:57.669Z,100.00
2023-03-31T03:43:25.986Z,100.00
2023-03-31T03:45:53.799Z,100.00
2023-03-31T03:48:21.567Z,100.00
2023-03-31T03:50:49.603Z,100.00
2023-03-31T03:53:17.453Z,100.00
2023-03-31T03:55:49.013Z,100.00
2023-03-31T03:58:19.815Z,100.00
2023-03-31T04:00:48.205Z,100.00
2023-03-31T04:03:16.615Z,100.00
2023-03-31T04:05:44.797Z,100.00
2023-03-31T04:08:12.341Z,100.00
2023-03-31T04:10:45.611Z,100.00
2023-03-31T04:13:13.627Z,100.00
2023-03-31T04:15:41.490Z,100.00
2023-03-31T04:18:23.306Z,100.00
2023-03-31T04:21:04.286Z,100.00
2023-03-31T04:23:42.824Z,100.00
2023-03-31T04:26:11.340Z,100.00
2023-03-31T04:28:42.863Z,100.00
2023-03-31T04:31:16.155Z,100.00
2023-03-31T04:33:46.297Z,100.00
2023-03-31T04:36:20.060Z,100.00
2023-03-31T04:38:51.145Z,100.00
2023-03-31T04:41:19.577Z,100.00
2023-03-31T04:43:47.436Z,100.00
2023-03-31T04:46:15.920Z,100.00
2023-03-31T04:48:44.027Z,100.00
2023-03-31T04:51:15.390Z,100.00
2023-03-31T04:53:43.580Z,100.00
2023-03-31T04:56:12.427Z,100.00
2023-03-31T04:58:40.649Z,100.00
2023-03-31T05:01:08.427Z,100.00
2023-03-31T05:03:36.537Z,100.00
2023-03-31T05:06:04.602Z,100.00
2023-03-31T05:08:33.591Z,100.00
2023-03-31T05:11:03.682Z,100.00
2023-03-31T05:13:31.243Z,100.00
2023-03-31T05:15:58.900Z,100.00
2023-03-31T05:18:26.950Z,100.00
2023-03-31T05:20:54.541Z,100.00
2023-03-31T05:23:23.183Z,100.00
2023-03-31T05:25:51.340Z,100.00
2023-03-31T05:28:19.397Z,100.00
2023-03-31T05:30:47.428Z,100.00
2023-03-31T05:33:15.875Z,100.00
2023-03-31T05:35:44.648Z,100.00
2023-03-31T05:38:12.194Z,100.00
2023-03-31T05:40:39.806Z,100.00
2023-03-31T05:43:08.004Z,100.00
2023-03-31T05:45:36.400Z,100.00
2023-03-31T05:48:04.646Z,100.00
2023-03-31T05:50:32.817Z,100.00
2023-03-31T05:53:00.582Z,100.00
2023-03-31T05:55:28.548Z,100.00
2023-03-31T05:57:56.883Z,100.00
2023-03-31T06:00:25.027Z,100.00
2023-03-31T06:02:52.643Z,100.00
2023-03-31T06:05:20.862Z,100.00
2023-03-31T06:07:48.851Z,100.00
2023-03-31T06:10:17.373Z,100.00
2023-03-31T06:12:45.339Z,100.00
2023-03-31T06:15:12.956Z,100.00
2023-03-31T06:17:41.345Z,100.00
2023-03-31T06:20:23.965Z,100.00
2023-03-31T06:22:55.292Z,100.00
2023-03-31T06:25:22.917Z,100.00
2023-03-31T06:27:50.994Z,100.00
2023-03-31T06:30:19.254Z,100.00
2023-03-31T06:32:47.250Z,100.00
2023-03-31T06:35:15.577Z,100.00
2023-03-31T06:37:43.650Z,100.00
2023-03-31T06:40:11.785Z,100.00
2023-03-31T06:42:39.866Z,100.00
2023-03-31T06:45:08.621Z,100.00
2023-03-31T06:47:41.692Z,100.00
2023-03-31T06:50:10.914Z,100.00
2023-03-31T06:52:40.977Z,100.00
2023-03-31T06:55:09.975Z,100.00
2023-03-31T06:57:37.592Z,100.00
2023-03-31T07:00:07.813Z,100.00
2023-03-31T07:02:37.396Z,100.00
2023-03-31T07:05:05.458Z,100.00
2023-03-31T07:07:34.224Z,100.00
2023-03-31T07:10:02.432Z,100.00
2023-03-31T07:12:34.128Z,100.00
2023-03-31T07:15:02.414Z,100.00
2023-03-31T07:17:30.014Z,100.00
2023-03-31T07:19:59.087Z,100.00
2023-03-31T07:22:26.689Z,100.00
2023-03-31T07:24:54.750Z,100.00
2023-03-31T07:27:25.588Z,100.00
2023-03-31T07:29:53.940Z,100.00
2023-03-31T07:32:24.128Z,100.00
2023-03-31T07:34:52.718Z,100.00
2023-03-31T07:37:20.701Z,100.00
2023-03-31T07:39:48.797Z,100.00
2023-03-31T07:42:16.515Z,100.00
2023-03-31T07:44:44.369Z,100.00
2023-03-31T07:47:12.004Z,100.00
2023-03-31T07:49:39.635Z,100.00
2023-03-31T07:52:07.386Z,100.00
2023-03-31T07:54:36.076Z,100.00
2023-03-31T07:57:06.274Z,100.00
2023-03-31T07:59:35.029Z,100.00
2023-03-31T08:02:03.185Z,100.00
2023-03-31T08:04:31.340Z,100.00
2023-03-31T08:06:59.442Z,100.00
2023-03-31T08:09:27.334Z,100.00
2023-03-31T08:11:55.682Z,100.00
2023-03-31T08:14:34.155Z,100.00
2023-03-31T08:17:12.309Z,100.00
2023-03-31T08:19:40.439Z,100.00
2023-03-31T08:22:08.068Z,100.00
2023-03-31T08:24:36.181Z,100.00
2023-03-31T08:27:03.727Z,100.00
2023-03-31T08:29:31.249Z,99.06
2023-03-31T08:31:59.502Z,100.00
2023-03-31T08:34:27.396Z,98.22
2023-03-31T08:36:55.833Z,96.36
2023-03-31T08:39:23.823Z,94.80
2023-03-31T08:42:02.601Z,93.95
2023-03-31T08:44:42.504Z,92.61
2023-03-31T08:47:18.358Z,90.37
2023-03-31T08:49:51.206Z,91.00
2023-03-31T08:52:25.297Z,91.94
2023-03-31T08:54:58.508Z,92.22
2023-03-31T08:57:31.920Z,92.34
2023-03-31T09:00:07.076Z,94.86
2023-03-31T09:02:50.763Z,95.93
2023-03-31T09:05:59.608Z,96.27
2023-03-31T09:08:39.561Z,99.58
2023-03-31T09:11:33.764Z,100.00
2023-03-31T09:14:18.259Z,100.00
2023-03-31T09:17:09.017Z,100.00
2023-03-31T09:20:01.824Z,99.52
2023-03-31T09:22:39.136Z,100.00
2023-03-31T09:25:28.298Z,100.00
2023-03-31T09:27:58.275Z,98.31
2023-03-31T09:30:36.760Z,98.71
2023-03-31T09:33:34.463Z,96.95
2023-03-31T09:36:03.539Z,94.15
2023-03-31T09:38:31.476Z,95.09
2023-03-31T09:41:03.057Z,94.19
2023-03-31T09:43:35.697Z,95.01
2023-03-31T09:46:13.092Z,94.08
2023-03-31T09:48:48.506Z,96.02
2023-03-31T09:51:26.554Z,94.15
2023-03-31T09:54:03.829Z,92.71
2023-03-31T09:56:46.122Z,95.93
2023-03-31T09:59:19.360Z,94.22
2023-03-31T10:01:50.865Z,91.51
2023-03-31T10:04:26.262Z,91.99
2023-03-31T10:06:55.631Z,93.57
2023-03-31T10:09:31.036Z,99.08
2023-03-31T10:12:15.895Z,100.00
2023-03-31T10:14:50.174Z,100.00
2023-03-31T10:17:21.963Z,95.13
2023-03-31T10:20:00.583Z,89.43
2023-03-31T10:22:29.766Z,89.13
2023-03-31T10:25:10.998Z,83.82
2023-03-31T10:27:42.248Z,81.60
2023-03-31T10:30:13.111Z,83.94
2023-03-31T10:32:45.877Z,77.97
2023-03-31T10:35:30.341Z,77.07
2023-03-31T10:38:00.599Z,76.78
2023-03-31T10:40:32.833Z,77.38
2023-03-31T10:43:18.173Z,83.52
2023-03-31T10:45:56.391Z,76.31
2023-03-31T10:48:30.862Z,72.59
2023-03-31T10:51:06.731Z,70.17
2023-03-31T10:53:49.955Z,73.63
2023-03-31T10:56:42.056Z,70.62
2023-03-31T10:59:30.999Z,65.34
2023-03-31T11:02:17.556Z,62.43
2023-03-31T11:05:04.719Z,65.39
2023-03-31T11:08:02.397Z,63.59
2023-03-31T11:10:39.293Z,63.63
2023-03-31T11:13:07.243Z,60.72
2023-03-31T11:16:04.519Z,57.63
2023-03-31T11:18:48.578Z,56.01
2023-03-31T11:21:22.254Z,54.08
2023-03-31T11:24:23.120Z,51.60
2023-03-31T11:27:13.027Z,51.67
2023-03-31T11:29:54.390Z,51.14
2023-03-31T11:32:41.332Z,51.59
2023-03-31T11:35:44.390Z,51.09
2023-03-31T11:39:00.299Z,52.66
2023-03-31T11:41:52.773Z,50.80
2023-03-31T11:44:24.436Z,49.04
2023-03-31T11:47:00.297Z,48.14
2023-03-31T11:49:38.191Z,45.76
2023-03-31T11:52:17.149Z,45.40
2023-03-31T11:55:22.034Z,43.13
2023-03-31T11:58:22.183Z,40.75
2023-03-31T12:01:10.109Z,38.96
2023-03-31T12:04:00.662Z,38.26
2023-03-31T12:06:35.513Z,37.46
2023-03-31T12:09:41.137Z,39.33
2023-03-31T12:12:12.410Z,38.98
2023-03-31T12:14:47.368Z,37.38
2023-03-31T12:17:19.955Z,38.34
2023-03-31T12:19:56.777Z,40.02
2023-03-31T12:22:43.385Z,40.57
2023-03-31T12:25:23.259Z,45.49
2023-03-31T12:27:52.093Z,44.57
2023-03-31T12:30:29.409Z,43.21
2023-03-31T12:33:06.615Z,45.59
2023-03-31T12:36:06.837Z,46.97
2023-03-31T12:39:13.270Z,51.85
2023-03-31T12:42:09.528Z,49.50
2023-03-31T12:45:00.026Z,50.19
2023-03-31T12:47:34.611Z,50.65
2023-03-31T12:50:24.182Z,48.79
2023-03-31T12:53:05.748Z,49.06
2023-03-31T12:55:41.048Z,48.10
2023-03-31T12:58:32.459Z,49.70
2023-03-31T13:01:19.397Z,50.69
2023-03-31T13:04:06.342Z,51.01
2023-03-31T13:06:34.475Z,52.77
2023-03-31T13:09:08.938Z,51.10
2023-03-31T13:11:38.906Z,50.90
2023-03-31T13:14:12.979Z,49.74
2023-03-31T13:16:41.326Z,50.52
2023-03-31T13:19:12.882Z,50.23
2023-03-31T13:22:07.418Z,50.08
2023-03-31T13:24:35.520Z,49.46
2023-03-31T13:27:28.900Z,49.19
2023-03-31T13:29:57.288Z,52.24
2023-03-31T13:32:26.916Z,52.68
2023-03-31T13:34:55.446Z,55.44
2023-03-31T13:37:54.302Z,57.10
2023-03-31T13:40:31.324Z,54.74
2023-03-31T13:43:23.832Z,54.92
2023-03-31T13:46:04.519Z,54.26
2023-03-31T13:48:38.442Z,54.42
2023-03-31T13:51:12.491Z,55.89
2023-03-31T13:54:24.968Z,55.17
2023-03-31T13:57:20.142Z,54.83
2023-03-31T14:00:12.563Z,54.37
2023-03-31T14:03:17.679Z,56.68
2023-03-31T14:05:56.150Z,54.52
2023-03-31T14:08:44.580Z,53.34
2023-03-31T14:11:32.417Z,52.85
2023-03-31T14:14:16.119Z,53.18
2023-03-31T14:16:54.371Z,51.47
2023-03-31T14:19:54.916Z,50.24
2023-03-31T14:22:44.457Z,52.85
2023-03-31T14:25:31.344Z,54.01
2023-03-31T14:28:20.923Z,53.98
2023-03-31T14:31:24.145Z,54.21
2023-03-31T14:34:14.335Z,55.89
2023-03-31T14:36:58.073Z,55.38
2023-03-31T14:39:37.166Z,56.83
2023-03-31T14:42:11.988Z,58.96
2023-03-31T14:44:42.649Z,57.09
2023-03-31T14:47:16.581Z,57.38
2023-03-31T14:49:45.350Z,55.69
2023-03-31T14:52:19.056Z,56.02
2023-03-31T14:54:47.864Z,55.10
2023-03-31T14:57:20.978Z,55.24
2023-03-31T14:59:53.143Z,57.31
2023-03-31T15:02:33.331Z,57.19
2023-03-31T15:05:10.854Z,58.73
2023-03-31T15:07:41.966Z,61.09
2023-03-31T15:10:20.527Z,61.86
2023-03-31T15:12:51.085Z,61.77
2023-03-31T15:15:20.845Z,61.05
2023-03-31T15:17:49.174Z,61.89
2023-03-31T15:20:35.282Z,62.92
2023-03-31T15:23:21.389Z,64.92
2023-03-31T15:25:49.459Z,64.87
2023-03-31T15:28:19.038Z,64.11
2023-03-31T15:30:54.327Z,65.18
2023-03-31T15:36:31.249Z,64.87
2023-03-31T15:38:59.878Z,64.93
2023-03-31T15:41:31.891Z,64.50
2023-03-31T15:44:27.137Z,65.69
2023-03-31T15:47:01.159Z,66.14
2023-03-31T15:49:30.514Z,66.22
2023-03-31T15:52:00.670Z,66.84
2023-03-31T15:54:53.496Z,66.32
2023-03-31T15:57:22.527Z,65.39
2023-03-31T15:59:56.700Z,65.75
2023-03-31T16:02:47.129Z,66.48
2023-03-31T16:08:43.029Z,68.59
2023-03-31T16:11:19.322Z,67.79
2023-03-31T16:13:52.390Z,67.50
2023-03-31T16:16:23.305Z,67.31
2023-03-31T16:18:58.021Z,67.20
2023-03-31T16:21:29.121Z,67.79
2023-03-31T16:23:59.870Z,68.35
2023-03-31T16:26:29.377Z,68.35
2023-03-31T16:28:57.728Z,69.20
2023-03-31T16:31:39.591Z,69.40
2023-03-31T16:34:09.981Z,69.04
2023-03-31T16:36:38.434Z,69.94
2023-03-31T16:39:07.164Z,71.29
2023-03-31T16:41:37.758Z,70.43
2023-03-31T16:44:06.483Z,68.37
2023-03-31T16:46:34.355Z,68.26
2023-03-31T16:49:02.575Z,68.78
2023-03-31T16:51:30.950Z,69.12
2023-03-31T16:53:59.542Z,70.93
2023-03-31T16:56:27.794Z,71.66
2023-03-31T16:58:56.395Z,71.53
2023-03-31T17:01:24.363Z,71.79
2023-03-31T17:03:53.074Z,71.44
2023-03-31T17:06:20.663Z,69.39
2023-03-31T17:08:48.735Z,71.14
2023-03-31T17:11:17.519Z,69.65
2023-03-31T17:13:46.655Z,68.36
2023-03-31T17:16:19.176Z,71.64
2023-03-31T17:18:55.228Z,74.30
2023-03-31T17:21:23.803Z,76.00
2023-03-31T17:23:51.567Z,76.55
2023-03-31T17:26:20.116Z,76.01
2023-03-31T17:28:47.877Z,77.18
2023-03-31T17:31:17.687Z,76.84
2023-03-31T17:33:46.809Z,78.91
2023-03-31T17:36:15.696Z,80.45
2023-03-31T17:38:43.355Z,79.12
2023-03-31T17:41:13.156Z,78.88
2023-03-31T17:43:45.526Z,80.18
2023-03-31T17:46:14.184Z,80.06
2023-03-31T17:48:43.364Z,80.88
2023-03-31T17:51:15.092Z,81.44
2023-03-31T17:53:45.340Z,81.05
2023-03-31T17:56:14.763Z,83.08
2023-03-31T17:58:43.082Z,84.64
2023-03-31T18:01:11.954Z,86.77
2023-03-31T18:03:39.884Z,87.66
2023-03-31T18:06:11.799Z,89.90
2023-03-31T18:08:40.331Z,92.47
2023-03-31T18:11:09.903Z,94.89
2023-03-31T18:13:38.954Z,96.60
2023-03-31T18:16:13.016Z,98.19
2023-03-31T18:18:42.533Z,100.00
2023-03-31T18:21:13.200Z,99.98
2023-03-31T18:23:41.996Z,99.74
2023-03-31T18:26:12.338Z,99.36
2023-03-31T18:28:41.021Z,99.35
2023-03-31T18:31:09.943Z,97.54
2023-03-31T18:33:39.840Z,97.72
2023-03-31T18:36:09.359Z,96.98
2023-03-31T18:38:37.644Z,97.32
2023-03-31T18:41:05.278Z,97.82
2023-03-31T18:43:33.461Z,97.39
2023-03-31T18:46:01.898Z,97.65
2023-03-31T18:48:30.469Z,98.49
2023-03-31T18:50:58.432Z,98.53
2023-03-31T18:53:28.008Z,99.30
2023-03-31T18:55:58.643Z,100.00
2023-03-31T18:58:29.521Z,97.73
2023-03-31T19:00:59.036Z,97.55
2023-03-31T19:03:27.431Z,97.40
2023-03-31T19:06:10.244Z,97.37
2023-03-31T19:08:39.594Z,98.12
2023-03-31T19:11:15.451Z,98.69
2023-03-31T19:13:44.339Z,99.01
2023-03-31T19:16:13.490Z,97.81
2023-03-31T19:18:43.779Z,98.50
2023-03-31T19:21:11.878Z,97.67
2023-03-31T19:23:39.837Z,97.21
2023-03-31T19:26:07.863Z,97.68
2023-03-31T19:28:37.189Z,96.48
2023-03-31T19:31:05.855Z,96.24
2023-03-31T19:33:33.712Z,97.35
2023-03-31T19:36:02.122Z,97.92
2023-03-31T19:38:32.363Z,99.55
2023-03-31T19:41:00.532Z,100.00
2023-03-31T19:43:30.258Z,100.00
2023-03-31T19:45:59.588Z,100.00
2023-03-31T19:48:31.438Z,100.00
2023-03-31T19:51:01.631Z,100.00
2023-03-31T19:53:30.547Z,100.00
2023-03-31T19:56:08.175Z,100.00
2023-03-31T19:58:37.522Z,100.00
2023-03-31T20:01:08.950Z,100.00
2023-03-31T20:03:37.906Z,100.00
2023-03-31T20:06:12.365Z,100.00
2023-03-31T20:08:42.809Z,100.00
2023-03-31T20:11:14.199Z,100.00
2023-03-31T20:13:43.445Z,100.00
2023-03-31T20:16:18.346Z,100.00
2023-03-31T20:18:54.804Z,100.00
2023-03-31T20:21:26.209Z,100.00
2023-03-31T20:23:55.154Z,100.00
2023-03-31T20:26:26.454Z,100.00
2023-03-31T20:28:56.068Z,100.00
2023-03-31T20:31:27.490Z,100.00
2023-03-31T20:33:56.514Z,100.00
2023-03-31T20:36:28.931Z,100.00
2023-03-31T20:38:58.345Z,100.00
2023-03-31T20:41:28.741Z,100.00
2023-03-31T20:43:56.991Z,100.00
2023-03-31T20:46:25.622Z,100.00
2023-03-31T20:48:56.765Z,100.00
2023-03-31T20:51:30.455Z,100.00
2023-03-31T20:54:00.200Z,100.00
2023-03-31T20:56:39.776Z,100.00
2023-03-31T20:59:13.057Z,100.00
2023-03-31T21:01:42.689Z,100.00
2023-03-31T21:04:11.631Z,100.00
2023-03-31T21:06:45.524Z,100.00
2023-03-31T21:09:14.827Z,100.00
2023-03-31T21:11:43.512Z,100.00
2023-03-31T21:14:14.267Z,100.00
2023-03-31T21:16:42.888Z,100.00
2023-03-31T21:19:10.773Z,100.00
2023-03-31T21:21:41.556Z,100.00
2023-03-31T21:24:11.717Z,100.00
2023-03-31T21:26:40.408Z,100.00
2023-03-31T21:29:08.563Z,100.00
2023-03-31T21:31:36.680Z,100.00
2023-03-31T21:34:04.690Z,100.00
2023-03-31T21:36:32.450Z,100.00
2023-03-31T21:39:00.030Z,100.00
2023-03-31T21:41:30.610Z,100.00
2023-03-31T21:44:02.407Z,100.00
2023-03-31T21:46:33.844Z,100.00
2023-03-31T21:49:02.717Z,100.00
2023-03-31T21:51:31.098Z,100.00
2023-03-31T21:53:58.881Z,100.00
2023-03-31T21:56:28.394Z,100.00
2023-03-31T21:59:01.595Z,100.00
2023-03-31T22:01:30.637Z,100.00
2023-03-31T22:03:59.557Z,100.00
2023-03-31T22:06:28.046Z,100.00
2023-03-31T22:08:55.620Z,100.00
2023-03-31T22:11:23.762Z,100.00
2023-03-31T22:13:51.406Z,100.00
2023-03-31T22:16:22.037Z,100.00
2023-03-31T22:18:50.737Z,100.00
2023-03-31T22:21:24.710Z,100.00
2023-03-31T22:23:54.879Z,100.00
2023-03-31T22:26:23.594Z,100.00
2023-03-31T22:28:51.485Z,100.00
2023-03-31T22:31:20.731Z,100.00
2023-03-31T22:33:49.730Z,100.00
2023-03-31T22:36:17.510Z,100.00
2023-03-31T22:38:45.293Z,100.00
2023-03-31T22:41:13.503Z,100.00
2023-03-31T22:43:44.615Z,100.00
2023-03-31T22:46:14.332Z,100.00
2023-03-31T22:48:42.476Z,100.00
2023-03-31T22:51:12.139Z,100.00
2023-03-31T22:53:40.502Z,100.00
2023-03-31T22:56:12.231Z,100.00
2023-03-31T22:58:39.933Z,100.00
2023-03-31T23:01:09.895Z,100.00
2023-03-31T23:03:37.852Z,100.00
2023-03-31T23:06:06.628Z,100.00
2023-03-31T23:08:36.946Z,100.00
2023-03-31T23:11:07.705Z,100.00
2023-03-31T23:13:36.129Z,100.00
2023-03-31T23:16:10.375Z,100.00
2023-03-31T23:18:45.996Z,100.00
2023-03-31T23:21:15.214Z,100.00
2023-03-31T23:23:42.945Z,100.00
2023-03-31T23:26:12.441Z,100.00
2023-03-31T23:28:40.115Z,100.00
2023-03-31T23:31:08.080Z,100.00
2023-03-31T23:33:36.745Z,100.00
2023-03-31T23:36:07.555Z,100.00
2023-03-31T23:38:35.776Z,100.00
2023-03-31T23:41:03.898Z,100.00
2023-03-31T23:43:32.420Z,100.00
2023-03-31T23:46:02.736Z,100.00
2023-03-31T23:48:31.448Z,100.00
2023-03-31T23:50:59.077Z,100.00
2023-03-31T23:53:27.551Z,100.00
2023-03-31T23:55:57.911Z,100.00
2023-03-31T23:58:26.667Z,100.00
